Terminal Aerodrome Forecast
Issued by NWS

Home | Current Version | Previous Version | Text Only | Print | Product List | Glossary On
Versions: 1 2 3 4 5 6 7 8 9 10 11 12 13 14
969
FTUS42 KTBW 261120
TAFRSW
TAF
KRSW 261120Z 2612/2712 09004KT P6SM SKC
     FM261400 11008KT P6SM SCT040 SCT250
     FM261900 14007KT P6SM VCSH SCT050 SCT250
     FM270100 08004KT P6SM SCT060=

USA.gov is the U.S. government's official web portal to all federal, state and local government web resources and services.